Time;durP1;ratioP1;P1;durP2;ratioP2;P2;SDS_P1;SDS_P2;PMS_P1;PMS_P2;Temp;Humidity;BMP_temperature;BMP_pressure;BME280_temperature;BME280_humidity;BME280_pressure;Samples;Min_cycle;Max_cycle;Signal;HPM_P1;HPM_P2
2023/10/19 00:00:59;;;;;;;21.65;10.73;;;;;;;9.61;93.44;99211.78;5157649;28;20036;-74
2023/10/19 00:03:30;;;;;;;20.77;10.65;;;;;;;9.52;94.13;99204.47;5177138;28;20034;-74
2023/10/19 00:06:00;;;;;;;16.60;9.57;;;;;;;9.59;95.14;99204.06;5160354;28;20033;-74
2023/10/19 00:08:41;;;;;;;20.63;11.00;;;;;;;9.45;96.30;99198.72;5176185;28;20145;-74
2023/10/19 00:11:32;;;;;;;18.95;10.73;;;;;;;9.39;96.04;99185.16;5176132;28;20487;-72
2023/10/19 00:14:03;;;;;;;19.80;11.02;;;;;;;9.43;96.58;99176.25;5177869;28;20058;-73
2023/10/19 00:16:35;;;;;;;18.60;10.30;;;;;;;9.36;96.93;99180.97;5177250;28;20430;-74
2023/10/19 00:19:06;;;;;;;19.90;11.80;;;;;;;9.39;97.49;99186.03;5161562;28;20030;-72
2023/10/19 00:21:50;;;;;;;20.92;11.05;;;;;;;9.46;96.96;99192.56;5172912;28;20387;-74
2023/10/19 00:24:23;;;;;;;20.35;11.10;;;;;;;9.37;98.62;99192.22;5177380;28;20471;-73
2023/10/19 00:26:54;;;;;;;22.35;10.82;;;;;;;9.38;98.94;99184.34;5175392;28;20113;-74
2023/10/19 00:29:31;;;;;;;17.42;10.63;;;;;;;9.27;100.00;99189.25;5176845;28;20859;-73
2023/10/19 00:32:06;;;;;;;17.88;10.27;;;;;;;9.24;100.00;99181.59;5175062;28;20029;-73
2023/10/19 00:34:38;;;;;;;20.30;10.85;;;;;;;9.25;100.00;99185.03;5174736;28;20030;-73
2023/10/19 00:37:10;;;;;;;21.20;10.40;;;;;;;9.24;100.00;99186.81;5176158;28;20034;-75
2023/10/19 00:39:47;;;;;;;20.50;10.55;;;;;;;9.26;100.00;99184.97;5173943;28;20022;-73
2023/10/19 00:42:23;;;;;;;17.60;10.93;;;;;;;9.25;100.00;99177.22;5177619;28;20388;-74
2023/10/19 00:45:01;;;;;;;17.13;10.77;;;;;;;9.14;100.00;99174.34;5147730;28;20064;-74
2023/10/19 00:47:39;;;;;;;19.40;11.35;;;;;;;9.03;100.00;99176.66;5173663;28;20068;-74
2023/10/19 00:50:15;;;;;;;21.23;12.27;;;;;;;9.07;100.00;99167.75;5177440;28;20052;-74
2023/10/19 00:52:49;;;;;;;21.10;10.82;;;;;;;9.03;100.00;99155.81;5175078;28;20038;-74
2023/10/19 00:55:20;;;;;;;23.58;11.95;;;;;;;9.05;100.00;99153.16;5179208;28;20028;-74
2023/10/19 00:57:52;;;;;;;19.98;11.55;;;;;;;9.03;100.00;99150.59;5173093;28;20487;-74
2023/10/19 01:00:34;;;;;;;19.58;11.10;;;;;;;9.01;100.00;99149.84;5170854;28;20026;-74
2023/10/19 01:03:05;;;;;;;20.23;11.60;;;;;;;8.94;100.00;99140.69;5173929;28;20466;-73
2023/10/19 01:05:36;;;;;;;22.75;11.80;;;;;;;8.92;100.00;99136.47;5156620;28;20040;-73
2023/10/19 01:08:22;;;;;;;19.90;11.90;;;;;;;8.88;100.00;99140.16;5177169;28;20025;-74
2023/10/19 01:10:53;;;;;;;20.15;11.77;;;;;;;8.87;100.00;99126.28;5176504;28;20029;-74
2023/10/19 01:13:27;;;;;;;24.38;12.38;;;;;;;9.00;100.00;99116.03;5154523;28;20033;-71
2023/10/19 01:15:58;;;;;;;28.35;12.38;;;;;;;8.88;100.00;99119.31;5173650;28;20522;-73
2023/10/19 01:18:32;;;;;;;23.20;12.25;;;;;;;8.81;100.00;99121.38;5174842;28;20083;-74
2023/10/19 01:21:05;;;;;;;20.15;11.82;;;;;;;8.84;100.00;99110.81;5176496;28;20231;-75
2023/10/19 01:23:37;;;;;;;23.00;13.13;;;;;;;8.82;100.00;99104.84;5174280;28;20030;-73
2023/10/19 01:26:08;;;;;;;25.98;13.73;;;;;;;8.67;100.00;99095.22;5159276;28;20032;-73
2023/10/19 01:31:16;;;;;;;22.77;12.32;;;;;;;8.71;100.00;99101.94;5175526;28;20503;-73
2023/10/19 01:33:47;;;;;;;25.38;13.77;;;;;;;8.74;100.00;99109.59;5174432;28;20060;-73
2023/10/19 01:38:57;;;;;;;23.95;13.15;;;;;;;8.83;100.00;99109.13;5167427;28;20451;-75
2023/10/19 01:41:30;;;;;;;22.17;12.70;;;;;;;8.74;100.00;99109.59;5155859;28;20324;-71
2023/10/19 01:44:06;;;;;;;22.20;12.55;;;;;;;8.65;100.00;99106.63;5168272;28;20030;-74
2023/10/19 01:46:37;;;;;;;21.33;12.48;;;;;;;8.64;100.00;99105.78;5172568;28;20467;-74
2023/10/19 01:49:08;;;;;;;22.38;12.63;;;;;;;8.64;100.00;99092.78;5157398;28;20116;-75
2023/10/19 01:51:38;;;;;;;26.52;12.95;;;;;;;8.56;100.00;99096.69;5163622;28;20030;-74
2023/10/19 01:54:09;;;;;;;21.25;12.98;;;;;;;8.54;100.00;99091.53;5173278;28;20048;-73
2023/10/19 01:56:42;;;;;;;29.15;14.00;;;;;;;8.53;100.00;99091.63;5173221;28;20037;-73
2023/10/19 01:59:13;;;;;;;26.00;13.73;;;;;;;8.54;100.00;99078.53;5174376;28;20388;-75
2023/10/19 02:01:45;;;;;;;25.00;14.15;;;;;;;8.53;100.00;99076.84;5157780;28;20502;-74
2023/10/19 02:04:16;;;;;;;26.45;14.32;;;;;;;8.52;100.00;99074.34;5175128;28;20431;-73
2023/10/19 02:06:47;;;;;;;25.17;14.93;;;;;;;8.57;100.00;99067.94;5170373;28;20041;-74
2023/10/19 02:11:55;;;;;;;28.67;15.10;;;;;;;8.55;100.00;99043.75;5170370;28;20029;-73
2023/10/19 02:14:29;;;;;;;26.95;15.32;;;;;;;8.50;100.00;99040.56;5171406;28;20478;-73
2023/10/19 02:17:03;;;;;;;28.52;14.77;;;;;;;8.50;100.00;99037.97;5172866;28;20053;-74
2023/10/19 02:19:33;;;;;;;29.00;14.90;;;;;;;8.46;100.00;99026.03;5173014;28;20060;-75
2023/10/19 02:22:07;;;;;;;28.98;15.85;;;;;;;8.49;100.00;99018.06;5173805;28;20054;-74
2023/10/19 02:24:38;;;;;;;28.65;14.77;;;;;;;8.47;100.00;99013.84;5155551;28;20025;-74
2023/10/19 02:27:09;;;;;;;29.05;15.52;;;;;;;8.51;100.00;99000.59;5157950;28;20116;-74
2023/10/19 02:29:41;;;;;;;27.23;15.15;;;;;;;8.61;100.00;98987.94;5167522;28;20227;-74
2023/10/19 02:32:11;;;;;;;29.70;15.90;;;;;;;8.53;100.00;98990.09;5167347;28;20446;-71
2023/10/19 02:34:41;;;;;;;26.20;14.35;;;;;;;8.55;100.00;98996.06;5172867;28;20046;-75
2023/10/19 02:37:12;;;;;;;28.13;15.77;;;;;;;8.64;100.00;98977.34;5175535;28;20096;-74
2023/10/19 02:39:43;;;;;;;25.83;15.02;;;;;;;8.63;100.00;98973.91;5172602;28;20048;-74
2023/10/19 02:42:13;;;;;;;28.98;15.88;;;;;;;8.62;100.00;98982.66;5174609;28;20491;-74
2023/10/19 02:44:44;;;;;;;26.50;14.65;;;;;;;8.61;100.00;98967.94;5172385;28;20026;-75
2023/10/19 02:47:14;;;;;;;28.75;14.75;;;;;;;8.59;100.00;98967.16;5174422;28;20460;-74
2023/10/19 02:49:51;;;;;;;26.50;14.45;;;;;;;8.48;100.00;98972.13;5173384;28;20029;-74
2023/10/19 02:52:22;;;;;;;28.88;15.55;;;;;;;8.53;100.00;98967.50;5175022;28;20030;-74
2023/10/19 02:54:56;;;;;;;26.00;14.32;;;;;;;8.68;100.00;98969.28;5153600;28;20054;-74
2023/10/19 02:57:27;;;;;;;29.95;15.32;;;;;;;8.67;100.00;98953.75;5172347;28;20470;-74
2023/10/19 02:59:58;;;;;;;28.33;15.55;;;;;;;8.68;100.00;98940.66;5157315;28;20033;-73
2023/10/19 03:02:29;;;;;;;25.30;14.93;;;;;;;8.59;100.00;98946.34;5172212;28;20352;-73
2023/10/19 03:05:00;;;;;;;26.13;15.10;;;;;;;8.61;100.00;98944.53;5153232;28;20029;-73
2023/10/19 03:07:31;;;;;;;30.10;16.58;;;;;;;8.57;100.00;98942.16;5172773;28;20064;-74
2023/10/19 03:10:02;;;;;;;30.45;15.43;;;;;;;8.59;100.00;98943.72;5171704;28;20034;-74
2023/10/19 03:12:33;;;;;;;32.38;16.35;;;;;;;8.61;100.00;98943.66;5173447;28;20034;-75
2023/10/19 03:15:05;;;;;;;30.27;16.20;;;;;;;8.56;100.00;98943.06;5156957;28;20604;-73
2023/10/19 03:17:36;;;;;;;30.88;16.38;;;;;;;8.60;100.00;98947.19;5172830;28;20330;-74
2023/10/19 03:20:06;;;;;;;32.53;16.25;;;;;;;8.61;100.00;98939.31;5174313;28;20495;-75
2023/10/19 03:22:38;;;;;;;28.75;16.27;;;;;;;8.59;100.00;98941.13;5172550;28;20034;-75
2023/10/19 03:27:57;;;;;;;31.10;16.80;;;;;;;8.60;100.00;98941.97;5170597;28;20088;-74
2023/10/19 03:30:27;;;;;;;32.42;17.48;;;;;;;8.59;100.00;98935.91;5172981;28;20403;-74
2023/10/19 03:33:00;;;;;;;31.55;16.92;;;;;;;8.65;100.00;98929.56;5174669;28;20026;-71
2023/10/19 03:35:31;;;;;;;31.05;16.23;;;;;;;8.60;100.00;98931.56;5172874;28;20048;-75
2023/10/19 03:38:07;;;;;;;31.45;17.38;;;;;;;8.60;100.00;98926.38;5174648;28;20133;-74
2023/10/19 03:40:38;;;;;;;32.05;16.40;;;;;;;8.50;100.00;98925.16;5172777;28;20029;-74
2023/10/19 03:43:17;;;;;;;30.38;17.30;;;;;;;8.54;100.00;98926.69;5174076;28;20037;-74
2023/10/19 03:45:52;;;;;;;33.58;16.55;;;;;;;8.44;100.00;98928.09;5155781;28;20491;-74
2023/10/19 03:48:34;;;;;;;32.38;15.70;;;;;;;8.36;100.00;98927.69;5172370;28;20053;-74
2023/10/19 03:51:04;;;;;;;26.10;15.07;;;;;;;8.22;100.00;98924.97;5172151;28;20038;-74
2023/10/19 03:53:35;;;;;;;28.02;15.65;;;;;;;8.26;100.00;98922.13;5157999;28;20175;-75
2023/10/19 03:56:10;;;;;;;26.60;15.65;;;;;;;8.24;100.00;98918.75;5174254;28;20026;-74
2023/10/19 03:58:44;;;;;;;24.15;14.88;;;;;;;8.29;100.00;98924.56;5172810;28;20034;-74
2023/10/19 04:01:16;;;;;;;24.73;15.80;;;;;;;8.26;100.00;98919.53;5174722;28;20121;-74
2023/10/19 04:03:47;;;;;;;29.48;15.93;;;;;;;8.18;100.00;98923.44;5168140;28;20034;-73
2023/10/19 04:06:20;;;;;;;29.10;15.02;;;;;;;8.22;100.00;98906.75;5170733;28;20056;-75
2023/10/19 04:08:50;;;;;;;27.00;15.10;;;;;;;8.10;100.00;98905.59;5172931;28;20032;-74
2023/10/19 04:11:32;;;;;;;28.38;16.38;;;;;;;8.14;100.00;98901.06;5176170;28;20022;-74
2023/10/19 04:14:03;;;;;;;32.15;15.73;;;;;;;8.11;100.00;98906.44;5175802;28;20057;-74
2023/10/19 04:16:37;;;;;;;26.83;15.48;;;;;;;8.14;100.00;98906.25;5176902;28;20022;-75
2023/10/19 04:19:07;;;;;;;32.03;16.23;;;;;;;8.13;100.00;98899.38;5178400;28;20026;-74
2023/10/19 04:21:43;;;;;;;30.35;16.35;;;;;;;8.09;100.00;98887.47;5175905;28;20201;-73
2023/10/19 04:24:14;;;;;;;32.65;16.40;;;;;;;8.14;100.00;98901.91;5178184;28;20279;-75
2023/10/19 04:26:45;;;;;;;27.55;16.05;;;;;;;8.09;100.00;98898.72;5176061;28;20542;-74
2023/10/19 04:29:18;;;;;;;29.38;15.55;;;;;;;8.16;100.00;98897.47;5178111;28;20041;-75
2023/10/19 04:31:54;;;;;;;33.08;17.25;;;;;;;8.09;100.00;98887.47;5172888;28;20113;-75
2023/10/19 04:34:25;;;;;;;28.13;16.38;;;;;;;8.12;100.00;98882.09;5175604;28;20030;-72
2023/10/19 04:36:57;;;;;;;28.00;16.80;;;;;;;8.14;100.00;98880.25;5173472;28;20494;-75
2023/10/19 04:39:30;;;;;;;33.22;17.13;;;;;;;8.23;100.00;98896.25;5175423;28;20522;-74
2023/10/19 04:42:00;;;;;;;30.77;17.20;;;;;;;8.22;100.00;98888.53;5173756;28;20331;-76
2023/10/19 04:44:31;;;;;;;28.05;16.52;;;;;;;8.18;100.00;98890.44;5158852;28;20406;-75
2023/10/19 04:47:01;;;;;;;31.55;16.63;;;;;;;8.10;100.00;98877.00;5173683;28;20061;-75
2023/10/19 04:49:31;;;;;;;30.50;16.52;;;;;;;8.16;100.00;98881.84;5172764;28;20076;-74
2023/10/19 04:52:03;;;;;;;31.25;17.10;;;;;;;8.14;100.00;98868.09;5173503;28;20025;-74
2023/10/19 04:54:33;;;;;;;31.70;16.77;;;;;;;8.21;100.00;98872.06;5173643;28;20118;-74
2023/10/19 04:57:03;;;;;;;30.02;16.45;;;;;;;8.29;100.00;98869.91;5176285;28;20038;-74
2023/10/19 04:59:34;;;;;;;31.15;17.10;;;;;;;8.39;100.00;98855.47;5175815;28;20299;-75
2023/10/19 05:02:05;;;;;;;32.28;17.85;;;;;;;8.39;100.00;98855.47;5175291;28;20026;-75
2023/10/19 05:04:35;;;;;;;29.25;16.33;;;;;;;8.33;100.00;98867.97;5172343;28;20030;-73
2023/10/19 05:07:09;;;;;;;31.52;18.05;;;;;;;8.39;100.00;98855.47;5176652;28;20226;-74
2023/10/19 05:09:39;;;;;;;27.15;17.00;;;;;;;8.44;100.00;98857.81;5171645;28;20026;-72
2023/10/19 05:12:11;;;;;;;32.90;18.25;;;;;;;8.45;100.00;98860.34;5156288;28;20438;-75
2023/10/19 05:14:42;;;;;;;28.15;16.52;;;;;;;8.58;100.00;98861.34;5170634;28;20061;-73
2023/10/19 05:17:13;;;;;;;32.10;16.88;;;;;;;8.55;100.00;98856.31;5174861;28;20033;-74
2023/10/19 05:19:44;;;;;;;30.05;16.52;;;;;;;8.58;100.00;98861.34;5174181;28;20232;-74
2023/10/19 05:22:14;;;;;;;26.83;15.50;;;;;;;8.55;100.00;98855.50;5174727;28;20234;-74
2023/10/19 05:24:44;;;;;;;27.25;15.63;;;;;;;8.56;100.00;98847.56;5173991;28;20056;-75
2023/10/19 05:27:15;;;;;;;28.35;15.80;;;;;;;8.63;100.00;98853.28;5174625;28;20026;-75
2023/10/19 05:29:45;;;;;;;26.60;14.68;;;;;;;8.67;100.00;98842.63;5176024;28;20056;-74
2023/10/19 05:32:15;;;;;;;23.55;14.68;;;;;;;8.66;100.00;98853.97;5176578;28;20036;-74
2023/10/19 05:34:47;;;;;;;25.30;14.88;;;;;;;8.60;100.00;98851.72;5175024;28;20146;-74
2023/10/19 05:37:17;;;;;;;23.77;14.77;;;;;;;8.68;100.00;98848.66;5177086;28;20487;-74
2023/10/19 05:39:51;;;;;;;29.02;14.95;;;;;;;8.67;100.00;98850.44;5175715;28;20048;-75
2023/10/19 05:42:22;;;;;;;25.13;14.18;;;;;;;8.60;100.00;98854.31;5163101;28;20014;-75
2023/10/19 05:44:52;;;;;;;23.85;14.38;;;;;;;8.59;100.00;98857.81;5175027;28;20087;-76
2023/10/19 05:47:23;;;;;;;22.30;12.98;;;;;;;8.61;100.00;98856.00;5176302;28;20443;-76
2023/10/19 05:49:53;;;;;;;16.88;10.65;;;;;;;8.54;100.00;98867.66;5183193;28;20319;-76
2023/10/19 05:52:23;;;;;;;16.52;10.50;;;;;;;8.65;100.00;98854.91;5159527;28;20018;-75
2023/10/19 05:54:54;;;;;;;15.73;9.75;;;;;;;8.65;100.00;98856.66;5156261;28;20065;-74
2023/10/19 05:57:24;;;;;;;17.90;9.65;;;;;;;8.67;100.00;98855.66;5175042;28;20034;-74
2023/10/19 05:59:54;;;;;;;16.25;9.68;;;;;;;8.68;100.00;98861.69;5175924;28;20041;-74
2023/10/19 06:02:25;;;;;;;11.75;6.75;;;;;;;8.63;100.00;98864.56;5174042;28;20575;-72
2023/10/19 06:04:57;;;;;;;10.13;6.70;;;;;;;8.60;100.00;98867.34;5175311;28;20112;-76
2023/10/19 06:07:27;;;;;;;9.23;6.25;;;;;;;8.61;100.00;98860.34;5175427;28;20459;-74
2023/10/19 06:10:00;;;;;;;9.75;6.40;;;;;;;8.59;100.00;98852.63;5158236;28;20026;-76
2023/10/19 06:12:31;;;;;;;10.50;6.95;;;;;;;8.61;100.00;98857.75;5173710;28;20045;-72
2023/10/19 06:15:03;;;;;;;8.70;5.47;;;;;;;8.66;100.00;98867.00;5158106;28;20041;-75
2023/10/19 06:17:33;;;;;;;7.43;4.75;;;;;;;8.59;100.00;98867.41;5174759;28;20036;-74
2023/10/19 06:20:19;;;;;;;8.32;4.65;;;;;;;8.52;100.00;98866.06;5175737;28;20479;-76
2023/10/19 06:22:55;;;;;;;;;;;;;;;8.59;100.00;98855.22;5175087;28;20037;-75
2023/10/19 06:25:25;;;;;;;7.20;4.40;;;;;;;8.55;100.00;98861.53;5173541;28;20364;-75
2023/10/19 06:27:57;;;;;;;8.45;4.95;;;;;;;8.58;100.00;98863.94;5174911;28;20049;-76
2023/10/19 06:30:27;;;;;;;6.53;4.18;;;;;;;8.61;100.00;98866.41;5175085;28;20507;-75
2023/10/19 06:33:02;;;;;;;5.65;3.70;;;;;;;8.61;100.00;98866.41;5175435;28;20040;-72
2023/10/19 06:35:33;;;;;;;6.00;3.03;;;;;;;8.63;100.00;98874.13;5174413;28;20087;-75
2023/10/19 06:38:04;;;;;;;4.15;2.50;;;;;;;8.59;100.00;98878.66;5173825;28;20326;-75
2023/10/19 06:40:38;;;;;;;3.70;2.70;;;;;;;8.62;100.00;98873.28;5156804;28;20112;-73
2023/10/19 06:43:08;;;;;;;4.45;2.72;;;;;;;8.60;100.00;98872.53;5157149;28;20036;-74
2023/10/19 06:45:39;;;;;;;4.32;2.63;;;;;;;8.60;100.00;98867.34;5157464;28;20112;-74
2023/10/19 06:48:09;;;;;;;3.35;2.17;;;;;;;8.57;100.00;98866.66;5175927;28;20037;-75
2023/10/19 06:50:39;;;;;;;4.45;2.70;;;;;;;8.63;100.00;98874.13;5156420;28;20095;-74
2023/10/19 06:53:10;;;;;;;3.92;2.33;;;;;;;8.69;100.00;98868.59;5175772;28;20037;-75
2023/10/19 06:55:40;;;;;;;4.97;3.13;;;;;;;8.65;100.00;98865.31;5175035;28;20480;-76
2023/10/19 06:58:12;;;;;;;3.42;2.35;;;;;;;8.65;100.00;98861.84;5175649;28;20112;-77
2023/10/19 07:00:42;;;;;;;5.60;2.85;;;;;;;8.58;100.00;98856.13;5175455;28;20507;-73
2023/10/19 07:03:13;;;;;;;4.15;2.58;;;;;;;8.52;100.00;98861.69;5174884;28;20056;-74
2023/10/19 07:05:43;;;;;;;4.70;2.70;;;;;;;8.54;100.00;98859.03;5156732;28;20065;-74
2023/10/19 07:08:13;;;;;;;5.22;3.05;;;;;;;8.57;100.00;98856.25;5175926;28;20036;-74
2023/10/19 07:10:43;;;;;;;4.93;2.95;;;;;;;8.64;100.00;98855.81;5177624;28;20459;-74
2023/10/19 07:13:15;;;;;;;4.68;2.78;;;;;;;8.65;100.00;98857.50;5175412;28;20069;-73
2023/10/19 07:15:48;;;;;;;3.92;2.40;;;;;;;8.68;100.00;98854.72;5174490;28;20022;-74
2023/10/19 07:18:19;;;;;;;4.72;2.70;;;;;;;8.62;100.00;98852.47;5176363;28;20456;-74
2023/10/19 07:20:49;;;;;;;4.10;2.80;;;;;;;8.66;100.00;98843.56;5173811;28;20069;-73
2023/10/19 07:23:21;;;;;;;4.18;2.70;;;;;;;8.64;100.00;98840.19;5178289;28;20475;-74
2023/10/19 07:25:56;;;;;;;4.82;2.80;;;;;;;8.73;100.00;98839.66;5156794;28;20510;-73
2023/10/19 07:28:26;;;;;;;3.92;2.45;;;;;;;8.68;100.00;98846.91;5173158;28;20112;-73
2023/10/19 07:30:59;;;;;;;5.10;3.00;;;;;;;8.60;100.00;98840.44;5175183;28;20465;-74
2023/10/19 07:33:30;;;;;;;4.70;2.83;;;;;;;8.68;100.00;98846.91;5175034;28;20118;-73
2023/10/19 07:36:06;;;;;;;3.75;2.50;;;;;;;8.64;100.00;98848.00;5172164;28;20026;-73
2023/10/19 07:38:38;;;;;;;3.25;2.05;;;;;;;8.69;100.00;98845.16;5156421;28;20479;-74
2023/10/19 07:41:09;;;;;;;2.45;1.63;;;;;;;8.77;100.00;98842.97;5179933;28;20088;-74
2023/10/19 07:43:39;;;;;;;4.63;2.20;;;;;;;8.64;100.00;98844.56;5156946;28;20029;-75
2023/10/19 07:46:11;;;;;;;3.75;2.03;;;;;;;8.69;100.00;98835.56;5175452;28;20554;-74
2023/10/19 07:48:42;;;;;;;1.92;1.48;;;;;;;8.82;100.00;98847.00;5157575;28;20117;-74
2023/10/19 07:51:12;;;;;;;2.83;1.80;;;;;;;8.83;100.00;98837.41;5182899;28;20117;-72
2023/10/19 07:53:42;;;;;;;2.38;1.70;;;;;;;8.85;100.00;98832.94;5178522;28;20034;-75
2023/10/19 07:56:12;;;;;;;2.25;1.50;;;;;;;8.92;100.00;98836.88;5161568;28;20181;-73
2023/10/19 07:58:43;;;;;;;2.75;1.75;;;;;;;8.86;100.00;98827.66;5180312;28;20033;-73
2023/10/19 08:01:13;;;;;;;2.50;1.52;;;;;;;8.88;100.00;98828.41;5179562;28;20022;-74
2023/10/19 08:03:43;;;;;;;2.75;1.40;;;;;;;8.94;100.00;98833.28;5178139;28;20060;-75
2023/10/19 08:06:14;;;;;;;2.33;1.67;;;;;;;8.86;100.00;98830.25;5177701;28;20675;-73
2023/10/19 08:08:44;;;;;;;2.17;1.45;;;;;;;8.85;100.00;98828.56;5171587;28;20026;-72
2023/10/19 08:11:14;;;;;;;2.28;1.25;;;;;;;8.70;100.00;98831.22;5177694;28;20044;-73
2023/10/19 08:13:44;;;;;;;3.00;1.60;;;;;;;8.78;100.00;98832.47;5178437;28;20038;-74
2023/10/19 08:16:16;;;;;;;2.40;1.75;;;;;;;8.72;100.00;98835.41;5177698;28;20053;-73
2023/10/19 08:18:46;;;;;;;2.80;1.60;;;;;;;8.73;100.00;98846.66;5178153;28;20455;-73
2023/10/19 08:21:17;;;;;;;2.42;1.42;;;;;;;8.70;100.00;98834.63;5178273;28;20080;-74
2023/10/19 08:23:48;;;;;;;2.58;1.70;;;;;;;8.60;100.00;98830.03;5178173;28;20049;-74
2023/10/19 08:26:18;;;;;;;2.58;1.65;;;;;;;8.61;100.00;98835.16;5181083;28;20021;-73
2023/10/19 08:28:49;;;;;;;3.80;1.90;;;;;;;8.71;100.00;98835.50;5177732;28;20025;-73
2023/10/19 08:31:20;;;;;;;3.10;1.70;;;;;;;8.76;100.00;98829.09;5178489;28;20028;-73
2023/10/19 08:33:50;;;;;;;3.33;2.00;;;;;;;8.78;100.00;98831.63;5178104;28;20042;-74
2023/10/19 08:36:21;;;;;;;2.65;1.80;;;;;;;8.68;100.00;98839.09;5177948;28;20026;-74
2023/10/19 08:38:53;;;;;;;2.35;1.67;;;;;;;8.77;100.00;98836.00;5177121;28;20030;-74
2023/10/19 08:41:24;;;;;;;2.85;1.67;;;;;;;8.78;100.00;98836.81;5158601;28;20072;-72
2023/10/19 08:43:55;;;;;;;2.50;1.73;;;;;;;8.60;100.00;98837.84;5161069;28;20577;-74
2023/10/19 08:46:26;;;;;;;2.88;1.83;;;;;;;8.67;100.00;98840.03;5177994;28;20037;-74
2023/10/19 08:48:56;;;;;;;3.25;1.77;;;;;;;8.69;100.00;98837.34;5155861;28;20033;-72
2023/10/19 08:51:28;;;;;;;2.22;1.50;;;;;;;8.63;100.00;98828.09;5174224;28;20034;-73
2023/10/19 08:54:01;;;;;;;3.45;1.73;;;;;;;8.76;100.00;98833.47;5172543;28;20049;-73
2023/10/19 08:56:33;;;;;;;3.20;1.88;;;;;;;8.76;100.00;98834.28;5173725;28;20087;-71
2023/10/19 08:59:03;;;;;;;2.47;1.85;;;;;;;8.79;100.00;98834.16;5174986;28;20022;-74
2023/10/19 09:01:35;;;;;;;2.78;1.58;;;;;;;8.92;100.00;98835.09;5174073;28;20427;-74
2023/10/19 09:04:05;;;;;;;2.72;1.90;;;;;;;8.99;100.00;98819.97;5175369;28;20033;-73
2023/10/19 09:06:45;;;;;;;2.90;1.88;;;;;;;9.13;100.00;98822.63;5171185;28;20025;-74
2023/10/19 09:09:25;;;;;;;2.85;1.75;;;;;;;9.15;100.00;98816.41;5175848;28;20033;-74
2023/10/19 09:11:55;;;;;;;2.38;1.77;;;;;;;9.15;100.00;98816.41;5173907;28;20076;-73
2023/10/19 09:14:33;;;;;;;2.30;1.70;;;;;;;9.16;100.00;98813.69;5171024;28;20587;-72
2023/10/19 09:17:03;;;;;;;2.90;1.80;;;;;;;9.28;100.00;98817.38;5167720;28;20042;-74
2023/10/19 09:19:45;;;;;;;4.45;1.73;;;;;;;9.30;100.00;98815.53;5169671;28;20417;-72
2023/10/19 09:22:24;;;;;;;2.53;1.73;;;;;;;9.30;100.00;98818.97;5170379;28;20069;-73
2023/10/19 09:24:55;;;;;;;2.45;1.65;;;;;;;9.35;100.00;98818.69;5170322;28;20395;-73
2023/10/19 09:27:26;;;;;;;2.80;1.70;;;;;;;9.37;100.00;98816.84;5170274;28;20037;-71
2023/10/19 09:29:56;;;;;;;3.20;2.10;;;;;;;9.33;100.00;98804.91;5173914;28;20087;-73
2023/10/19 09:32:29;;;;;;;5.18;2.20;;;;;;;9.35;100.00;98808.25;5171817;28;20053;-72
2023/10/19 09:35:00;;;;;;;2.80;2.00;;;;;;;9.41;100.00;98802.69;5155676;28;20384;-74
2023/10/19 09:37:31;;;;;;;3.83;2.28;;;;;;;9.57;100.00;98813.88;5171597;28;20044;-72
2023/10/19 09:40:02;;;;;;;3.90;2.35;;;;;;;9.53;100.00;98821.06;5174835;28;20022;-72
2023/10/19 09:42:33;;;;;;;3.28;2.10;;;;;;;9.49;100.00;98806.50;5172384;28;20025;-71
2023/10/19 09:45:05;;;;;;;3.30;2.25;;;;;;;9.56;100.00;98807.00;5173513;28;20057;-74
2023/10/19 09:47:40;;;;;;;3.83;2.58;;;;;;;9.67;100.00;98809.81;5173963;28;20184;-73
2023/10/19 09:50:11;;;;;;;3.50;2.37;;;;;;;9.69;100.00;98803.53;5177303;28;20423;-73
2023/10/19 09:52:42;;;;;;;4.15;2.40;;;;;;;9.67;100.00;98815.03;5176162;28;20037;-73
2023/10/19 09:55:33;;;;;;;3.00;2.20;;;;;;;9.74;100.00;98801.53;5175812;28;20036;-71
2023/10/19 09:58:19;;;;;;;3.83;2.70;;;;;;;9.63;100.00;98808.31;5174293;28;20080;-73
2023/10/19 10:00:50;;;;;;;4.25;2.65;;;;;;;9.75;100.00;98799.72;5173799;28;20104;-73
2023/10/19 10:03:43;;;;;;;4.05;2.47;;;;;;;9.94;100.00;98797.69;5174799;28;20030;-73
2023/10/19 10:06:15;;;;;;;4.55;2.65;;;;;;;9.83;100.00;98800.13;5175133;28;20017;-73
2023/10/19 10:08:47;;;;;;;3.67;2.38;;;;;;;9.90;100.00;98797.06;5175315;28;20042;-74
2023/10/19 10:11:17;;;;;;;3.95;2.80;;;;;;;9.78;100.00;98802.16;5174799;28;20116;-73
2023/10/19 10:13:52;;;;;;;3.97;2.80;;;;;;;9.64;100.00;98799.56;5176567;28;20126;-73
2023/10/19 10:16:25;;;;;;;5.07;3.00;;;;;;;9.70;100.00;98786.16;5173075;28;20186;-73
2023/10/19 10:18:59;;;;;;;5.35;3.10;;;;;;;9.77;100.00;98782.22;5156709;28;20140;-73
2023/10/19 10:21:30;;;;;;;4.85;3.20;;;;;;;9.87;100.00;98789.41;5152753;28;20026;-72
2023/10/19 10:24:03;;;;;;;7.05;3.22;;;;;;;9.98;100.00;98784.34;5175578;28;20038;-73
2023/10/19 10:27:03;;;;;;;5.22;3.20;;;;;;;10.12;100.00;98779.16;5173502;28;20029;-71
2023/10/19 10:29:33;;;;;;;6.03;3.60;;;;;;;10.11;100.00;98774.03;5172803;28;20584;-71
2023/10/19 10:32:05;;;;;;;5.10;3.10;;;;;;;9.99;100.00;98764.34;5175510;28;20029;-74
2023/10/19 10:34:38;;;;;;;4.75;3.30;;;;;;;9.94;100.00;98774.19;5173778;28;20072;-73
2023/10/19 10:37:13;;;;;;;5.22;3.03;;;;;;;9.89;100.00;98778.88;5157067;28;20029;-73
2023/10/19 10:39:44;;;;;;;5.20;2.88;;;;;;;9.93;100.00;98781.22;5173610;28;20562;-74
2023/10/19 10:42:16;;;;;;;5.72;3.08;;;;;;;9.85;100.00;98780.00;5172863;28;20061;-72
2023/10/19 10:44:52;;;;;;;5.93;3.45;;;;;;;9.90;100.00;98770.97;5154721;28;20038;-75
2023/10/19 10:47:24;;;;;;;4.50;3.33;;;;;;;10.00;100.00;98766.00;5175628;28;20096;-76
2023/10/19 10:49:59;;;;;;;5.95;4.30;;;;;;;10.03;100.00;98764.06;5173895;28;20037;-75
2023/10/19 10:52:33;;;;;;;7.13;3.63;;;;;;;10.16;100.00;98762.38;5172793;28;20503;-73
2023/10/19 10:55:10;;;;;;;5.13;3.40;;;;;;;10.28;100.00;98768.59;5154539;28;20061;-76
2023/10/19 10:57:43;;;;;;;5.50;3.60;;;;;;;10.48;100.00;98760.34;5172316;28;20022;-76
2023/10/19 11:00:18;;;;;;;5.82;3.50;;;;;;;10.43;100.00;98754.56;5173715;28;20402;-75
2023/10/19 11:03:09;;;;;;;4.68;3.20;;;;;;;10.37;100.00;98741.91;5172902;28;20041;-76
2023/10/19 11:05:40;;;;;;;5.88;3.05;;;;;;;10.39;100.00;98742.66;5174212;28;20061;-76
2023/10/19 11:08:20;;;;;;;5.35;3.60;;;;;;;10.38;100.00;98741.78;5174330;28;20034;-76
2023/10/19 11:10:52;;;;;;;5.47;3.45;;;;;;;10.38;100.00;98731.34;5156165;28;20040;-76
2023/10/19 11:13:24;;;;;;;6.95;4.20;;;;;;;10.49;100.00;98734.13;5174429;28;20522;-76
2023/10/19 11:15:58;;;;;;;6.40;4.38;;;;;;;10.55;100.00;98735.50;5175308;28;20438;-76
2023/10/19 11:18:45;;;;;;;8.05;5.03;;;;;;;10.49;100.00;98725.47;5173390;28;20072;-75
2023/10/19 11:21:18;;;;;;;9.38;5.30;;;;;;;10.47;100.00;98743.84;5174385;28;20033;-76
2023/10/19 11:23:49;;;;;;;8.90;5.13;;;;;;;10.49;100.00;98738.53;5173165;28;20140;-75
2023/10/19 11:26:21;;;;;;;7.30;5.07;;;;;;;10.64;100.00;98737.50;5177756;28;20088;-75
2023/10/19 11:28:59;;;;;;;7.95;4.88;;;;;;;10.74;100.00;98739.44;5177244;28;20030;-75
2023/10/19 11:31:37;;;;;;;7.07;4.60;;;;;;;10.66;100.00;98744.31;5175153;28;20578;-75
2023/10/19 11:34:08;;;;;;;7.05;4.78;;;;;;;10.60;100.00;98736.88;5161164;28;20040;-75
2023/10/19 11:36:39;;;;;;;6.60;4.32;;;;;;;10.59;100.00;98730.00;5176262;28;20116;-76
2023/10/19 11:39:12;;;;;;;7.43;4.70;;;;;;;10.67;100.00;98725.09;5178634;28;20109;-76
2023/10/19 11:41:42;;;;;;;8.68;5.40;;;;;;;10.75;100.00;98727.19;5157724;28;20514;-76
2023/10/19 11:44:13;;;;;;;8.25;5.57;;;;;;;10.75;100.00;98721.97;5176726;28;20048;-76
2023/10/19 11:46:43;;;;;;;8.20;6.05;;;;;;;10.55;100.00;98723.25;5176186;28;20111;-77
2023/10/19 11:49:14;;;;;;;9.32;5.95;;;;;;;10.55;100.00;98717.22;5177646;28;20026;-76
2023/10/19 11:51:44;;;;;;;8.95;6.30;;;;;;;10.59;100.00;98713.47;5176710;28;20026;-76
2023/10/19 11:54:16;;;;;;;8.57;6.05;;;;;;;10.62;100.00;98723.72;5159781;28;20041;-75
2023/10/19 11:56:46;;;;;;;9.25;5.90;;;;;;;10.66;100.00;98735.66;5175872;28;20029;-76
2023/10/19 11:59:16;;;;;;;11.23;5.95;;;;;;;10.53;100.00;98726.94;5183538;28;20076;-76